createdAt,value
2022-12-31T00:01:32.007Z,9.41
2022-12-31T00:04:01.144Z,9.33
2022-12-31T00:06:32.190Z,9.44
2022-12-31T00:09:02.990Z,9.38
2022-12-31T00:11:31.921Z,9.31
2022-12-31T00:14:00.496Z,9.25
2022-12-31T00:16:32.034Z,9.26
2022-12-31T00:19:01.285Z,9.35
2022-12-31T00:21:31.992Z,9.28
2022-12-31T00:24:00.419Z,9.32
2022-12-31T00:26:30.764Z,9.32
2022-12-31T00:29:02.781Z,9.19
2022-12-31T00:31:35.412Z,9.18
2022-12-31T00:34:03.770Z,9.24
2022-12-31T00:36:34.806Z,9.20
2022-12-31T00:39:04.504Z,9.19
2022-12-31T00:41:32.601Z,9.13
2022-12-31T00:44:01.103Z,9.01
2022-12-31T00:46:29.100Z,9.03
2022-12-31T00:48:56.897Z,8.94
2022-12-31T00:51:27.770Z,8.87
2022-12-31T00:53:57.101Z,8.91
2022-12-31T00:56:28.027Z,8.85
2022-12-31T00:58:56.284Z,9.02
2022-12-31T01:01:30.684Z,8.95
2022-12-31T01:04:07.474Z,8.98
2022-12-31T01:06:35.822Z,8.84
2022-12-31T01:09:04.546Z,8.71
2022-12-31T01:11:32.657Z,8.66
2022-12-31T01:14:03.246Z,8.66
2022-12-31T01:16:33.807Z,8.54
2022-12-31T01:19:04.963Z,8.49
2022-12-31T01:21:34.337Z,8.48
2022-12-31T01:24:02.168Z,8.42
2022-12-31T01:26:30.759Z,8.29
2022-12-31T01:28:58.787Z,8.23
2022-12-31T01:31:27.317Z,8.12
2022-12-31T01:33:55.708Z,8.07
2022-12-31T01:36:28.444Z,8.05
2022-12-31T01:38:58.201Z,8.00
2022-12-31T01:41:30.375Z,7.83
2022-12-31T01:44:22.757Z,7.68
2022-12-31T01:47:00.758Z,7.66
2022-12-31T01:49:34.864Z,7.73
2022-12-31T01:52:20.976Z,7.88
2022-12-31T01:55:02.933Z,7.89
2022-12-31T01:57:32.010Z,8.02
2022-12-31T02:00:02.135Z,8.02
2022-12-31T02:02:33.328Z,8.01
2022-12-31T02:05:05.811Z,8.26
2022-12-31T02:07:33.678Z,8.33
2022-12-31T02:10:02.115Z,8.33
2022-12-31T02:12:29.925Z,8.36
2022-12-31T02:14:57.856Z,8.36
2022-12-31T02:17:39.312Z,8.41
2022-12-31T02:20:09.726Z,8.37
2022-12-31T02:22:37.604Z,8.42
2022-12-31T02:25:31.198Z,8.52
2022-12-31T02:28:33.995Z,8.48
2022-12-31T02:31:11.719Z,8.46
2022-12-31T02:33:43.108Z,8.65
2022-12-31T02:36:18.627Z,8.71
2022-12-31T02:38:48.930Z,8.62
2022-12-31T02:41:37.713Z,8.67
2022-12-31T02:44:34.198Z,8.77
2022-12-31T02:47:25.800Z,8.72
2022-12-31T02:50:12.103Z,8.77
2022-12-31T02:53:07.013Z,8.76
2022-12-31T02:55:50.203Z,8.83
2022-12-31T02:58:58.360Z,8.89
2022-12-31T03:01:50.044Z,8.70
2022-12-31T03:04:33.854Z,8.38
2022-12-31T03:07:13.828Z,8.52
2022-12-31T03:09:41.695Z,8.42
2022-12-31T03:12:30.527Z,8.55
2022-12-31T03:14:59.027Z,8.57
2022-12-31T03:17:26.874Z,8.49
2022-12-31T03:20:13.377Z,8.56
2022-12-31T03:22:43.357Z,8.53
2022-12-31T03:25:55.216Z,8.53
2022-12-31T03:28:26.017Z,8.56
2022-12-31T03:30:56.899Z,8.60
2022-12-31T03:33:25.549Z,8.60
2022-12-31T03:35:54.069Z,8.49
2022-12-31T03:38:22.090Z,8.55
2022-12-31T03:40:52.655Z,8.45
2022-12-31T03:43:20.972Z,8.50
2022-12-31T03:45:53.437Z,8.59
2022-12-31T03:48:23.617Z,8.47
2022-12-31T03:50:52.175Z,8.47
2022-12-31T03:53:20.292Z,8.57
2022-12-31T03:55:52.903Z,8.55
2022-12-31T03:58:21.828Z,8.69
2022-12-31T04:00:50.141Z,8.55
2022-12-31T04:03:18.313Z,8.60
2022-12-31T04:05:53.053Z,8.51
2022-12-31T04:08:20.918Z,8.39
2022-12-31T04:10:48.722Z,8.31
2022-12-31T04:13:16.511Z,8.34
2022-12-31T04:15:44.687Z,8.26
2022-12-31T04:18:13.427Z,8.44
2022-12-31T04:20:41.350Z,8.50
2022-12-31T04:23:09.147Z,8.70
2022-12-31T04:25:36.971Z,8.74
2022-12-31T04:28:04.922Z,8.45
2022-12-31T04:30:32.764Z,8.19
2022-12-31T04:33:00.537Z,8.29
2022-12-31T04:35:28.516Z,8.52
2022-12-31T04:37:56.290Z,8.62
2022-12-31T04:40:24.087Z,8.66
2022-12-31T04:42:51.887Z,8.59
2022-12-31T04:45:19.749Z,8.74
2022-12-31T04:47:47.617Z,8.76
2022-12-31T04:50:15.557Z,8.82
2022-12-31T04:52:43.344Z,8.82
2022-12-31T04:55:12.000Z,8.78
2022-12-31T04:57:41.345Z,8.87
2022-12-31T05:00:09.663Z,8.93
2022-12-31T05:02:37.661Z,8.97
2022-12-31T05:05:06.085Z,9.16
2022-12-31T05:07:33.855Z,9.07
2022-12-31T05:10:01.751Z,9.05
2022-12-31T05:12:29.638Z,9.08
2022-12-31T05:14:57.467Z,8.93
2022-12-31T05:17:25.400Z,9.06
2022-12-31T05:19:53.215Z,9.06
2022-12-31T05:22:30.204Z,9.04
2022-12-31T05:24:59.017Z,8.94
2022-12-31T05:27:31.371Z,8.97
2022-12-31T05:29:59.951Z,9.00
2022-12-31T05:32:28.745Z,8.94
2022-12-31T05:34:57.879Z,9.01
2022-12-31T05:37:29.520Z,8.93
2022-12-31T05:39:58.276Z,8.85
2022-12-31T05:42:26.768Z,8.83
2022-12-31T05:44:54.693Z,8.76
2022-12-31T05:47:22.593Z,8.79
2022-12-31T05:49:50.557Z,8.71
2022-12-31T05:52:18.791Z,8.73
2022-12-31T05:54:46.663Z,8.74
2022-12-31T05:57:14.702Z,8.74
2022-12-31T05:59:42.508Z,8.75
2022-12-31T06:02:10.576Z,8.72
2022-12-31T06:04:38.770Z,8.58
2022-12-31T06:07:06.827Z,8.59
2022-12-31T06:09:34.624Z,8.55
2022-12-31T06:12:02.549Z,8.60
2022-12-31T06:14:30.390Z,8.69
2022-12-31T06:16:58.541Z,8.82
2022-12-31T06:19:26.382Z,8.60
2022-12-31T06:21:54.202Z,8.58
2022-12-31T06:24:22.064Z,8.63
2022-12-31T06:26:50.041Z,8.59
2022-12-31T06:29:18.204Z,8.64
2022-12-31T06:31:47.999Z,8.58
2022-12-31T06:34:15.824Z,8.65
2022-12-31T06:36:43.679Z,8.80
2022-12-31T06:39:11.560Z,8.83
2022-12-31T06:41:39.492Z,8.86
2022-12-31T06:44:07.395Z,8.77
2022-12-31T06:46:35.298Z,8.71
2022-12-31T06:49:03.440Z,8.82
2022-12-31T06:51:31.269Z,8.83
2022-12-31T06:53:59.138Z,8.73
2022-12-31T06:56:34.433Z,8.76
2022-12-31T06:59:03.972Z,8.79
2022-12-31T07:01:49.411Z,8.80
2022-12-31T07:05:10.510Z,8.73
2022-12-31T07:07:53.091Z,8.71
2022-12-31T07:10:29.649Z,8.66
2022-12-31T07:13:32.057Z,8.81
2022-12-31T07:16:09.236Z,8.92
2022-12-31T07:18:47.269Z,8.92
2022-12-31T07:21:18.797Z,8.84
2022-12-31T07:23:46.910Z,8.86
2022-12-31T07:26:36.243Z,9.01
2022-12-31T07:29:28.093Z,8.97
2022-12-31T07:32:10.300Z,9.01
2022-12-31T07:34:53.055Z,8.92
2022-12-31T07:37:44.519Z,8.99
2022-12-31T07:40:52.670Z,8.95
2022-12-31T07:43:59.139Z,8.86
2022-12-31T07:46:54.536Z,9.11
2022-12-31T07:49:24.257Z,9.12
2022-12-31T07:51:55.953Z,9.17
2022-12-31T07:54:23.947Z,9.26
2022-12-31T07:56:52.306Z,9.32
2022-12-31T07:59:39.699Z,9.25
2022-12-31T08:02:15.933Z,9.24
2022-12-31T08:04:49.593Z,9.40
2022-12-31T08:07:55.434Z,9.47
2022-12-31T08:10:48.603Z,9.65
2022-12-31T08:13:18.062Z,9.75
2022-12-31T08:15:46.277Z,9.61
2022-12-31T08:18:14.326Z,9.66
2022-12-31T08:20:59.200Z,9.66
2022-12-31T08:23:54.956Z,9.67
2022-12-31T08:26:45.808Z,9.62
2022-12-31T08:29:23.848Z,9.55
2022-12-31T08:32:00.928Z,9.73
2022-12-31T08:35:06.348Z,9.76
2022-12-31T08:37:43.052Z,9.76
2022-12-31T08:40:27.437Z,9.44
2022-12-31T08:43:01.059Z,9.57
2022-12-31T08:45:41.992Z,9.47
2022-12-31T08:48:40.488Z,9.38
2022-12-31T08:51:17.967Z,9.55
2022-12-31T08:53:46.376Z,9.40
2022-12-31T08:56:23.243Z,9.76
2022-12-31T08:59:25.356Z,9.84
2022-12-31T09:02:19.209Z,9.82
2022-12-31T09:04:55.918Z,9.78
2022-12-31T09:07:37.332Z,9.75
2022-12-31T09:10:16.813Z,9.94
2022-12-31T09:13:25.980Z,10.09
2022-12-31T09:16:18.513Z,10.16
2022-12-31T09:18:46.535Z,10.20
2022-12-31T09:21:16.531Z,10.21
2022-12-31T09:23:44.608Z,10.26
2022-12-31T09:26:30.445Z,10.19
2022-12-31T09:29:24.300Z,10.32
2022-12-31T09:32:23.132Z,10.35
2022-12-31T09:35:07.613Z,10.04
2022-12-31T09:37:38.182Z,9.98
2022-12-31T09:40:53.019Z,10.08
2022-12-31T09:43:39.741Z,10.32
2022-12-31T09:46:25.666Z,10.29
2022-12-31T09:49:25.227Z,10.54
2022-12-31T09:52:23.873Z,10.71
2022-12-31T09:54:59.638Z,10.73
2022-12-31T09:57:40.120Z,10.87
2022-12-31T10:00:24.270Z,10.72
2022-12-31T10:03:26.789Z,10.72
2022-12-31T10:06:21.335Z,10.96
2022-12-31T10:09:33.863Z,10.66
2022-12-31T10:12:20.828Z,10.59
2022-12-31T10:14:57.522Z,10.87
2022-12-31T10:17:51.217Z,10.84
2022-12-31T10:20:47.784Z,10.92
2022-12-31T10:23:31.462Z,10.98
2022-12-31T10:26:14.899Z,11.09
2022-12-31T10:29:14.093Z,11.08
2022-12-31T10:31:41.910Z,11.14
2022-12-31T10:34:22.176Z,11.23
2022-12-31T10:36:58.332Z,11.38
2022-12-31T10:39:55.546Z,11.25
2022-12-31T10:42:36.744Z,11.39
2022-12-31T10:45:11.299Z,11.47
2022-12-31T10:48:14.065Z,11.40
2022-12-31T10:51:30.199Z,11.61
2022-12-31T10:54:33.811Z,11.57
2022-12-31T10:57:28.261Z,11.48
2022-12-31T11:00:23.102Z,11.51
2022-12-31T11:03:07.133Z,11.64
2022-12-31T11:06:08.701Z,11.64
2022-12-31T11:09:02.906Z,11.62
2022-12-31T11:12:01.265Z,11.54
2022-12-31T11:14:53.272Z,11.47
2022-12-31T11:17:26.740Z,11.73
2022-12-31T11:20:25.305Z,11.77
2022-12-31T11:23:18.506Z,11.77
2022-12-31T11:26:13.537Z,11.79
2022-12-31T11:28:48.903Z,12.08
2022-12-31T11:31:38.477Z,12.05
2022-12-31T11:34:38.261Z,11.97
2022-12-31T11:37:30.392Z,11.92
2022-12-31T11:40:35.529Z,11.90
2022-12-31T11:43:21.266Z,11.98
2022-12-31T11:46:23.478Z,11.97
2022-12-31T11:49:28.689Z,11.88
2022-12-31T11:52:21.045Z,11.82
2022-12-31T11:55:28.294Z,11.92
2022-12-31T11:58:02.883Z,11.93
2022-12-31T12:00:33.117Z,12.01
2022-12-31T12:03:07.109Z,11.97
2022-12-31T12:05:37.864Z,11.88
2022-12-31T12:08:07.298Z,11.89
2022-12-31T12:10:53.098Z,11.87
2022-12-31T12:13:24.321Z,12.01
2022-12-31T12:15:57.467Z,11.95
2022-12-31T12:18:36.357Z,11.87
2022-12-31T12:21:09.889Z,11.87
2022-12-31T12:23:38.847Z,12.02
2022-12-31T12:26:08.014Z,12.12
2022-12-31T12:28:45.004Z,12.24
2022-12-31T12:31:22.222Z,12.34
2022-12-31T12:33:52.288Z,12.26
2022-12-31T12:36:22.729Z,12.09
2022-12-31T12:39:01.900Z,12.18
2022-12-31T12:41:29.930Z,12.17
2022-12-31T12:44:13.540Z,12.18
2022-12-31T12:46:48.465Z,12.27
2022-12-31T12:49:27.674Z,12.20
2022-12-31T12:52:20.998Z,12.27
2022-12-31T12:55:31.084Z,12.22
2022-12-31T12:58:03.381Z,12.20
2022-12-31T13:01:04.460Z,12.49
2022-12-31T13:04:35.697Z,12.62
2022-12-31T13:07:15.987Z,12.59
2022-12-31T13:10:33.520Z,12.63
2022-12-31T13:13:24.178Z,12.69
2022-12-31T13:16:23.462Z,13.02
2022-12-31T13:19:16.156Z,12.86
2022-12-31T13:22:03.411Z,12.57
2022-12-31T13:25:05.255Z,12.80
2022-12-31T13:27:38.743Z,12.76
2022-12-31T13:30:17.582Z,12.42
2022-12-31T13:32:50.383Z,12.45
2022-12-31T13:35:42.344Z,12.55
2022-12-31T13:38:19.072Z,12.56
2022-12-31T13:40:57.363Z,12.50
2022-12-31T13:43:39.848Z,12.43
2022-12-31T13:46:14.874Z,12.52
2022-12-31T13:48:57.008Z,12.35
2022-12-31T13:51:28.450Z,11.93
2022-12-31T13:54:05.673Z,12.05
2022-12-31T13:56:39.358Z,12.20
2022-12-31T13:59:20.331Z,12.23
2022-12-31T14:02:18.015Z,12.30
2022-12-31T14:04:52.348Z,12.34
2022-12-31T14:07:22.419Z,12.45
2022-12-31T14:09:50.848Z,12.12
2022-12-31T14:12:21.777Z,12.29
2022-12-31T14:15:28.628Z,12.19
2022-12-31T14:18:18.379Z,12.04
2022-12-31T14:20:54.830Z,12.02
2022-12-31T14:23:59.699Z,12.26
2022-12-31T14:26:33.705Z,12.15
2022-12-31T14:29:09.959Z,12.15
2022-12-31T14:31:49.808Z,12.15
2022-12-31T14:34:29.257Z,12.04
2022-12-31T14:37:06.189Z,12.12
2022-12-31T14:39:49.767Z,11.89
2022-12-31T14:42:48.297Z,11.89
2022-12-31T14:45:22.491Z,11.89
2022-12-31T14:47:53.820Z,11.91
2022-12-31T14:50:29.973Z,11.93
2022-12-31T14:53:00.663Z,11.93
2022-12-31T14:55:29.921Z,11.90
2022-12-31T14:58:27.270Z,11.93
2022-12-31T15:00:59.688Z,11.95
2022-12-31T15:03:45.549Z,11.89
2022-12-31T15:06:23.258Z,11.73
2022-12-31T15:09:16.102Z,11.65
2022-12-31T15:11:46.306Z,11.70
2022-12-31T15:14:24.138Z,11.69
2022-12-31T15:16:59.352Z,11.62
2022-12-31T15:19:33.060Z,11.65
2022-12-31T15:22:22.077Z,11.58
2022-12-31T15:24:50.535Z,11.59
2022-12-31T15:27:33.709Z,11.63
2022-12-31T15:30:02.505Z,11.58
2022-12-31T15:32:40.242Z,11.61
2022-12-31T15:35:23.374Z,11.58
2022-12-31T15:37:59.254Z,11.58
2022-12-31T15:40:29.743Z,11.65
2022-12-31T15:43:10.070Z,11.53
2022-12-31T15:45:42.895Z,11.63
2022-12-31T15:48:18.363Z,11.54
2022-12-31T15:50:47.829Z,11.60
2022-12-31T15:53:33.680Z,11.41
2022-12-31T15:56:02.901Z,11.53
2022-12-31T15:58:37.185Z,11.36
2022-12-31T16:01:25.002Z,11.37
2022-12-31T16:03:59.909Z,11.43
2022-12-31T16:06:34.660Z,11.34
2022-12-31T16:09:03.703Z,11.41
2022-12-31T16:11:35.789Z,11.54
2022-12-31T16:14:04.468Z,11.38
2022-12-31T16:16:33.791Z,11.34
2022-12-31T16:19:02.054Z,11.35
2022-12-31T16:21:37.289Z,11.32
2022-12-31T16:24:28.596Z,11.32
2022-12-31T16:27:10.705Z,11.31
2022-12-31T16:29:55.821Z,11.25
2022-12-31T16:32:24.987Z,11.24
2022-12-31T16:34:56.247Z,11.24
2022-12-31T16:37:28.079Z,11.21
2022-12-31T16:39:56.915Z,11.25
2022-12-31T16:42:29.718Z,11.18
2022-12-31T16:44:58.469Z,11.11
2022-12-31T16:47:41.809Z,11.16
2022-12-31T16:50:23.346Z,11.19
2022-12-31T16:52:59.714Z,11.16
2022-12-31T16:55:29.761Z,11.17
2022-12-31T16:58:24.337Z,11.12
2022-12-31T17:00:54.488Z,11.09
2022-12-31T17:03:25.440Z,11.20
2022-12-31T17:06:01.634Z,11.14
2022-12-31T17:08:43.319Z,11.15
2022-12-31T17:11:42.399Z,11.26
2022-12-31T17:14:17.238Z,11.21
2022-12-31T17:17:08.408Z,11.18
2022-12-31T17:19:53.352Z,11.15
2022-12-31T17:22:36.701Z,11.20
2022-12-31T17:25:23.460Z,11.21
2022-12-31T17:28:05.844Z,11.13
2022-12-31T17:30:34.897Z,11.12
2022-12-31T17:33:10.231Z,11.13
2022-12-31T17:35:47.046Z,11.10
2022-12-31T17:38:18.520Z,11.06
2022-12-31T17:40:51.885Z,11.02
2022-12-31T17:43:25.107Z,11.02
2022-12-31T17:45:55.130Z,11.03
2022-12-31T17:48:25.138Z,11.04
2022-12-31T17:50:55.627Z,11.06
2022-12-31T17:53:25.168Z,11.07
2022-12-31T17:56:00.658Z,11.07
2022-12-31T17:58:44.371Z,11.11
2022-12-31T18:01:16.080Z,11.11
2022-12-31T18:03:44.538Z,11.08
2022-12-31T18:06:16.646Z,11.08
2022-12-31T18:08:45.097Z,11.01
2022-12-31T18:11:19.810Z,11.03
2022-12-31T18:13:48.345Z,11.02
2022-12-31T18:16:16.884Z,11.04
2022-12-31T18:18:45.612Z,11.02
2022-12-31T18:21:34.780Z,11.03
2022-12-31T18:26:34.922Z,11.04
2022-12-31T18:29:13.962Z,10.99
2022-12-31T18:31:44.448Z,11.00
2022-12-31T18:34:16.074Z,11.04
2022-12-31T18:36:44.308Z,10.88
2022-12-31T18:39:12.482Z,10.92
2022-12-31T18:41:49.653Z,11.11
2022-12-31T18:44:18.333Z,10.98
2022-12-31T18:46:46.360Z,11.02
2022-12-31T18:49:14.301Z,10.95
2022-12-31T18:51:42.212Z,11.01
2022-12-31T18:54:12.440Z,10.93
2022-12-31T18:56:46.348Z,11.00
2022-12-31T18:59:15.917Z,10.90
2022-12-31T19:01:43.992Z,11.09
2022-12-31T19:04:12.480Z,11.08
2022-12-31T19:06:40.431Z,11.04
2022-12-31T19:09:23.922Z,11.08
2022-12-31T19:11:56.559Z,11.08
2022-12-31T19:14:29.031Z,11.02
2022-12-31T19:19:27.849Z,11.05
2022-12-31T19:21:55.899Z,10.97
2022-12-31T19:24:26.942Z,11.06
2022-12-31T19:26:55.164Z,11.12
2022-12-31T19:29:25.574Z,11.07
2022-12-31T19:31:53.856Z,11.07
2022-12-31T19:34:22.553Z,11.04
2022-12-31T19:36:50.625Z,11.01
2022-12-31T19:39:21.124Z,11.06
2022-12-31T19:41:54.697Z,11.09
2022-12-31T19:44:26.698Z,11.04
2022-12-31T19:46:54.638Z,11.08
2022-12-31T19:49:24.258Z,11.13
2022-12-31T19:51:52.183Z,11.06
2022-12-31T19:54:20.121Z,10.94
2022-12-31T19:56:48.191Z,11.04
2022-12-31T19:59:16.145Z,11.05
2022-12-31T20:01:44.591Z,11.05
2022-12-31T20:04:16.082Z,11.02
2022-12-31T20:06:44.256Z,11.00
2022-12-31T20:09:12.337Z,10.85
2022-12-31T20:11:40.478Z,10.86
2022-12-31T20:14:08.411Z,10.87
2022-12-31T20:16:36.601Z,10.82
2022-12-31T20:19:06.191Z,10.81
2022-12-31T20:21:34.163Z,10.75
2022-12-31T20:24:02.224Z,10.80
2022-12-31T20:26:30.172Z,10.82
2022-12-31T20:28:58.068Z,10.75
2022-12-31T20:31:26.786Z,10.70
2022-12-31T20:33:55.552Z,10.71
2022-12-31T20:36:24.315Z,10.77
2022-12-31T20:38:52.397Z,10.73
2022-12-31T20:41:22.667Z,10.77
2022-12-31T20:43:50.913Z,10.83
2022-12-31T20:46:22.147Z,10.74
2022-12-31T20:48:51.846Z,10.86
2022-12-31T20:51:20.774Z,10.80
2022-12-31T20:53:51.279Z,10.85
2022-12-31T20:56:19.325Z,10.79
2022-12-31T20:58:47.223Z,10.71
2022-12-31T21:01:16.087Z,10.71
2022-12-31T21:06:35.356Z,10.70
2022-12-31T21:09:06.381Z,10.72
2022-12-31T21:11:53.798Z,10.73
2022-12-31T21:14:21.971Z,10.73
2022-12-31T21:16:50.207Z,10.72
2022-12-31T21:19:18.170Z,10.80
2022-12-31T21:21:46.041Z,10.85
2022-12-31T21:24:23.307Z,10.84
2022-12-31T21:26:54.688Z,10.86
2022-12-31T21:29:22.789Z,10.86
2022-12-31T21:31:50.759Z,10.91
2022-12-31T21:34:18.641Z,10.90
2022-12-31T21:36:46.624Z,10.92
2022-12-31T21:39:14.664Z,10.85
2022-12-31T21:41:51.666Z,10.95
2022-12-31T21:44:24.559Z,10.89
2022-12-31T21:47:40.931Z,10.91
2022-12-31T21:50:09.221Z,10.86
2022-12-31T21:52:37.343Z,10.72
2022-12-31T21:55:24.404Z,10.80
2022-12-31T21:58:24.627Z,10.78
2022-12-31T22:00:59.394Z,10.75
2022-12-31T22:03:28.331Z,10.85
2022-12-31T22:06:14.393Z,10.78
2022-12-31T22:08:44.879Z,10.82
2022-12-31T22:11:14.208Z,10.81
2022-12-31T22:13:42.622Z,10.79
2022-12-31T22:16:12.806Z,10.64
2022-12-31T22:18:43.107Z,10.59
2022-12-31T22:21:24.975Z,10.73
2022-12-31T22:23:55.336Z,10.75
2022-12-31T22:26:26.392Z,10.82
2022-12-31T22:28:59.570Z,10.85
2022-12-31T22:31:32.755Z,10.83
2022-12-31T22:34:02.119Z,10.86
2022-12-31T22:36:30.107Z,10.73
2022-12-31T22:38:58.685Z,10.81
2022-12-31T22:41:27.855Z,10.74
2022-12-31T22:44:04.102Z,10.81
2022-12-31T22:46:34.117Z,10.72
2022-12-31T22:49:03.961Z,10.72
2022-12-31T22:51:56.305Z,10.65
2022-12-31T22:54:20.530Z,10.64
2022-12-31T22:56:48.451Z,10.59
2022-12-31T22:59:16.284Z,10.62
2022-12-31T23:01:44.332Z,10.56
2022-12-31T23:04:12.528Z,10.61
2022-12-31T23:06:46.349Z,10.47
2022-12-31T23:09:35.409Z,10.50
2022-12-31T23:12:05.416Z,10.44
2022-12-31T23:14:52.602Z,10.45
2022-12-31T23:17:47.298Z,10.40
2022-12-31T23:20:36.705Z,10.41
2022-12-31T23:23:11.936Z,10.32
2022-12-31T23:25:48.633Z,10.39
2022-12-31T23:28:22.649Z,10.33
2022-12-31T23:30:53.954Z,10.14
2022-12-31T23:33:24.938Z,10.29
2022-12-31T23:36:04.485Z,10.46
2022-12-31T23:38:35.001Z,10.33
2022-12-31T23:41:12.703Z,10.24
2022-12-31T23:43:40.865Z,10.35
2022-12-31T23:46:08.836Z,10.35
2022-12-31T23:48:39.616Z,10.34
2022-12-31T23:51:07.586Z,10.37
2022-12-31T23:53:38.357Z,10.26
2022-12-31T23:56:17.662Z,10.38
2022-12-31T23:58:53.913Z,10.39
